Welcome to our new website - Welkom op onze vernieuwde website - Bienvenue sur notre nouveau site web - Willkommen auf unserer neuen Website
Check our progress frequently. Prüfen Sie unsere Fortschritte regelmäßig. Consultez notre progression fréquemment. Komt u straks nog eens terug
Het weer levert geen direct gevaar op.    Er zijn geen waarschuwingen afgegeven.

Regen radar Meer informatie rain snow radar


Bezoek ook deze websites:

Template documentation
and downloads

And another site


U vindt ons ook hier:

UK Metoffice

WeatherCloud

Weather Underground

AWEKAS


METAR rapporten vliegvelden

   
EBBR - Brussels International Airport, Belgium
Afstand tot: W 14 km
Gewijzigd: 25-05-2019 13:50
Licht bewolkt  
Licht bewolkt  
   Wind: varieert 4 km/h
Wind: varieert 4 km/h
Temperatuur: 14°C
Dauwpunt: 12°C
Vochtigheid: 88%
Barometer: 1019 hPa
Bewolking: Licht bewolkt
Zicht: meer dan 10 km
Bewolking: Licht bewolkt 1500 ft
EBBR 251150Z VRB02KT 9999 FEW015 14/12 Q1019 NOSIG
EBBE - Beauvechain (Bevekom), Belgium
Afstand tot: ZZO 17 km
Gewijzigd: 25-05-2019 13:55
Grotendeels bewolkt  
Grotendeels bewolkt  
   Wind: varieert 6 km/h
Wind: varieert 6 km/h
Temperatuur: 15°C
Dauwpunt: 10°C
Vochtigheid: 72%
Barometer: 1019 hPa
Bewolking: Grotendeels bewolkt
Zicht: meer dan 10 km
Bewolking: Gedeeltelijk bewolkt 1200 ft,
Grotendeels bewolkt 8000 ft
EBBE 251155Z AUTO VRB03KT 9999 SCT012/// BKN080/// 15/10 Q1019 GRN
EBDT - Schaffen, Belgium
Afstand tot: ONO 29 km
Gewijzigd: 25-05-2019 13:55
Grotendeels bewolkt  
Grotendeels bewolkt  
   Wind: varieert 4 km/h
Wind: varieert 4 km/h
Temperatuur: 16°C
Dauwpunt: 10°C
Vochtigheid: 68%
Barometer: 1018 hPa
Bewolking: Grotendeels bewolkt
Zicht: meer dan 10 km
Bewolking: Grotendeels bewolkt 7000 ft
EBDT 251155Z AUTO VRB02KT 9999 BKN070/// 16/10 Q1018 BLU
EBAW - Antwerp/Deurne, Belgium
Afstand tot: NNW 38 km
Gewijzigd: 25-05-2019 13:50
Licht bewolkt  
Licht bewolkt  
   Wind: varieert 4 km/h
Wind: varieert 4 km/h
Temperatuur: 16°C
Dauwpunt: 11°C
Vochtigheid: 72%
Barometer: 1018 hPa
Bewolking: Licht bewolkt
Zicht: meer dan 10 km
Bewolking: Licht bewolkt 4000 ft
EBAW 251150Z VRB02KT 9999 FEW040 16/11 Q1018 NOSIG
EBCI - Charleroi/Gosselies, Belgium
Afstand tot: ZZW 51 km
Gewijzigd: 25-05-2019 13:50
Gedeeltelijk bewolkt  
Gedeeltelijk bewolkt  
   Wind: varieert 7 km/h
Wind: varieert 7 km/h
Temperatuur: 15°C
Dauwpunt: 12°C
Vochtigheid: 82%
Barometer: 1018 hPa
Bewolking: Gedeeltelijk bewolkt
Zicht: 8 km
Bewolking: Gedeeltelijk bewolkt 1700 ft
EBCI 251150Z VRB04KT 8000 SCT017 15/12 Q1018 TEMPO 4000 SHRA
EBLG - Bierset/Liege, Belgium
Afstand tot: OZO 60 km
Gewijzigd: 25-05-2019 13:50
Wat regen mogelijk, Grotendeels bewolkt  
Wat regen mogelijk, Grotendeels bewolkt  
   Wind: WNW 7 km/h
Wind: WNW 7 km/h
Temperatuur: 13°C
Dauwpunt: 10°C
Vochtigheid: 82%
Barometer: 1019 hPa
Bewolking: Grotendeels bewolkt
Zicht: 9 km
Bewolking: Gedeeltelijk bewolkt 2200 ft,
Grotendeels bewolkt 4800 ft
EBLG 251150Z 29004KT 260V320 9000 -RA SCT022 BKN048 13/10 Q1019

Script ontwikkeld door  Saratoga-weather.org Aangepast voor de template door  Weerstation Leuven

Apparatuur in gebruik:

Weerstation
Davis Vantage Pro2

Weerprogramma
Meteobridge

Weercomputer
TP-Link TL-MR3020

Webleverancier
One.com

Davis Vantage Pro2

Meteobridge

TP-Link TL-MR3020

One.com